Time;durP1;ratioP1;P1;durP2;ratioP2;P2;SDS_P1;SDS_P2;PMS_P1;PMS_P2;Temp;Humidity;BMP_temperature;BMP_pressure;BME280_temperature;BME280_humidity;BME280_pressure;Samples;Min_cycle;Max_cycle;Signal;HPM_P1;HPM_P2
2022/08/11 00:00:07;;;;;;;11.93;8.32;;;18.20;99.90;;;;;;5060679;28;20040;-57
2022/08/11 00:02:37;;;;;;;14.63;8.90;;;18.10;99.90;;;;;;5059482;28;20052;-58
2022/08/11 00:05:12;;;;;;;11.98;8.30;;;18.10;99.90;;;;;;5061056;28;20041;-59
2022/08/11 00:07:50;;;;;;;12.63;8.20;;;18.10;99.90;;;;;;5059360;28;20089;-59
2022/08/11 00:10:19;;;;;;;10.73;7.53;;;18.10;99.90;;;;;;5059539;28;20041;-59
2022/08/11 00:12:53;;;;;;;11.70;7.95;;;18.00;99.90;;;;;;5060371;28;20625;-58
2022/08/11 00:15:19;;;;;;;13.02;8.43;;;18.00;99.90;;;;;;5058966;28;20413;-59
2022/08/11 00:17:46;;;;;;;11.35;7.72;;;18.10;99.90;;;;;;5060887;28;20092;-59
2022/08/11 00:20:13;;;;;;;12.93;7.68;;;18.00;99.90;;;;;;5059236;28;20128;-58
2022/08/11 00:22:42;;;;;;;13.52;8.15;;;18.00;99.90;;;;;;5060056;28;20065;-59
2022/08/11 00:25:14;;;;;;;11.68;8.27;;;17.90;99.90;;;;;;5059399;28;20045;-58
2022/08/11 00:27:41;;;;;;;11.50;8.55;;;17.90;99.90;;;;;;5059867;28;20052;-59
2022/08/11 00:30:08;;;;;;;11.10;8.15;;;17.90;99.90;;;;;;5052021;28;20056;-58
2022/08/11 00:32:38;;;;;;;12.27;8.07;;;17.90;99.90;;;;;;5039217;28;20042;-59
2022/08/11 00:35:07;;;;;;;14.50;8.10;;;17.90;99.90;;;;;;5040400;28;20052;-58
2022/08/11 00:37:34;;;;;;;11.80;8.40;;;17.90;99.90;;;;;;5042192;28;20076;-59
2022/08/11 00:40:02;;;;;;;11.48;7.93;;;17.90;99.90;;;;;;5060031;28;20093;-59
2022/08/11 00:42:51;;;;;;;12.02;7.68;;;17.90;99.90;;;;;;5059235;28;20036;-58
2022/08/11 00:45:38;;;;;;;10.93;7.20;;;17.90;99.90;;;;;;5041015;28;20186;-60
2022/08/11 00:48:12;;;;;;;11.70;7.68;;;17.90;99.90;;;;;;5060209;28;20073;-59
2022/08/11 00:50:41;;;;;;;11.38;7.53;;;17.80;99.90;;;;;;5058468;28;20049;-59
2022/08/11 00:53:13;;;;;;;12.73;8.02;;;17.80;99.90;;;;;;5059490;28;20056;-58
2022/08/11 00:55:48;;;;;;;12.80;8.15;;;17.80;99.90;;;;;;5059715;28;20103;-59
2022/08/11 00:58:38;;;;;;;11.90;7.70;;;17.80;99.90;;;;;;5058448;28;20451;-58
2022/08/11 01:01:25;;;;;;;11.13;7.53;;;17.80;99.90;;;;;;5059773;28;20044;-59
2022/08/11 01:04:00;;;;;;;11.52;7.57;;;17.80;99.90;;;;;;5058969;28;20040;-58
2022/08/11 01:06:50;;;;;;;11.63;7.80;;;17.80;99.90;;;;;;5058816;28;20048;-60
2022/08/11 01:09:37;;;;;;;10.35;7.50;;;17.70;99.90;;;;;;5059863;28;20053;-59
2022/08/11 01:12:43;;;;;;;11.80;7.47;;;17.70;99.90;;;;;;5058419;28;20150;-59
2022/08/11 01:15:33;;;;;;;10.50;6.97;;;17.80;99.90;;;;;;5058550;28;20057;-59
2022/08/11 01:18:36;;;;;;;12.65;7.50;;;17.70;99.90;;;;;;5059725;28;20102;-59
2022/08/11 01:21:30;;;;;;;10.80;7.13;;;17.60;99.90;;;;;;5058278;28;20044;-58
2022/08/11 01:24:41;;;;;;;10.40;6.95;;;17.60;99.90;;;;;;5058112;28;20045;-58
2022/08/11 01:27:14;;;;;;;10.38;7.00;;;17.60;99.90;;;;;;5043133;28;20045;-58
2022/08/11 01:29:59;;;;;;;12.73;7.40;;;17.60;99.90;;;;;;5054116;28;20068;-59
2022/08/11 01:32:46;;;;;;;14.27;6.65;;;17.60;99.90;;;;;;5038183;28;20053;-59
2022/08/11 01:35:33;;;;;;;12.57;7.65;;;17.50;99.90;;;;;;5039731;28;20056;-59
2022/08/11 01:38:26;;;;;;;12.65;7.28;;;17.50;99.90;;;;;;5045202;28;20191;-59
2022/08/11 01:41:14;;;;;;;14.82;7.47;;;17.50;99.90;;;;;;5056994;28;20044;-60
2022/08/11 01:47:50;;;;;;;9.68;6.93;;;17.50;99.90;;;;;;5058657;28;20060;-56
2022/08/11 01:50:50;;;;;;;11.23;7.10;;;17.40;99.90;;;;;;5057945;28;20041;-59
2022/08/11 01:53:37;;;;;;;11.57;7.20;;;17.40;99.90;;;;;;5057375;28;20053;-58
2022/08/11 01:56:22;;;;;;;11.70;6.95;;;17.40;99.90;;;;;;5059595;28;20041;-59
2022/08/11 01:58:54;;;;;;;12.30;6.53;;;17.40;99.90;;;;;;5057950;28;20045;-58
2022/08/11 02:01:36;;;;;;;11.45;7.38;;;17.40;99.90;;;;;;5059101;28;20082;-59
2022/08/11 02:04:44;;;;;;;12.80;7.35;;;17.40;99.90;;;;;;5058640;28;20143;-57
2022/08/11 02:07:27;;;;;;;11.57;6.70;;;17.30;99.90;;;;;;5057862;28;20386;-58
2022/08/11 02:13:37;;;;;;;12.52;7.97;;;17.30;99.90;;;;;;5059213;28;20095;-58
2022/08/11 02:16:15;;;;;;;10.13;6.63;;;17.30;99.90;;;;;;5037626;28;20096;-58
2022/08/11 02:25:08;;;;;;;12.68;7.22;;;17.30;99.90;;;;;;5034543;28;20041;-58
2022/08/11 02:27:54;;;;;;;12.10;7.15;;;17.30;99.90;;;;;;5058558;28;20049;-59
2022/08/11 02:30:24;;;;;;;11.43;7.47;;;17.30;99.90;;;;;;5049070;28;20389;-58
2022/08/11 02:33:22;;;;;;;10.32;7.03;;;17.20;99.90;;;;;;5038356;28;20049;-59
2022/08/11 02:36:02;;;;;;;11.13;7.30;;;17.20;99.90;;;;;;5042553;28;20101;-59
2022/08/11 02:38:34;;;;;;;10.52;7.25;;;17.20;99.90;;;;;;5052888;28;20049;-59
2022/08/11 02:44:28;;;;;;;11.57;7.22;;;17.10;99.90;;;;;;5062300;28;20048;-59
2022/08/11 02:47:02;;;;;;;12.02;7.60;;;17.20;99.90;;;;;;5061680;28;20060;-58
2022/08/11 02:49:55;;;;;;;11.98;7.90;;;17.10;99.90;;;;;;5060828;28;20045;-58
2022/08/11 02:52:30;;;;;;;11.02;7.55;;;17.10;99.90;;;;;;5062099;28;20080;-59
2022/08/11 02:54:55;;;;;;;10.50;7.05;;;17.10;99.90;;;;;;5060950;28;20120;-59
2022/08/11 02:57:26;;;;;;;13.25;7.38;;;17.00;99.90;;;;;;5061816;28;20079;-59
2022/08/11 03:00:11;;;;;;;12.40;7.10;;;17.00;99.90;;;;;;5061689;28;20414;-58
2022/08/11 03:02:48;;;;;;;11.82;7.13;;;17.00;99.90;;;;;;5060472;28;20064;-59
2022/08/11 03:05:16;;;;;;;12.07;7.22;;;17.00;99.90;;;;;;5062043;28;20076;-59
2022/08/11 03:08:00;;;;;;;12.07;7.28;;;16.90;99.90;;;;;;5060636;28;20516;-59
2022/08/11 03:16:43;;;;;;;10.25;6.85;;;16.90;99.90;;;;;;5061303;28;20055;-59
2022/08/11 03:16:51;;;;;;;14.27;6.68;;;16.80;99.90;;;;;;5060443;28;20060;-59
2022/08/11 03:19:25;;;;;;;12.00;6.68;;;16.80;99.90;;;;;;5060787;28;20037;-59
2022/08/11 03:22:16;;;;;;;9.70;6.20;;;16.80;99.90;;;;;;5061734;28;20083;-58
2022/08/11 03:25:09;;;;;;;9.55;6.00;;;16.70;99.90;;;;;;5060336;28;20076;-58
2022/08/11 03:27:45;;;;;;;9.65;6.20;;;16.70;99.90;;;;;;5061159;28;20041;-58
2022/08/11 03:30:10;;;;;;;8.88;5.70;;;16.60;99.90;;;;;;5052917;28;20117;-58
2022/08/11 03:34:00;;;;;;;8.55;6.07;;;16.70;99.90;;;;;;5040068;28;20045;-58
2022/08/11 03:35:39;;;;;;;10.77;6.05;;;16.60;99.90;;;;;;5041153;28;20045;-58
2022/08/11 03:38:11;;;;;;;11.80;6.53;;;16.60;99.90;;;;;;5063330;28;20045;-58
2022/08/11 03:44:22;;;;;;;10.32;6.63;;;16.60;99.90;;;;;;5060346;28;20063;-58
2022/08/11 03:47:05;;;;;;;9.20;6.25;;;16.60;99.90;;;;;;5060822;28;20071;-57
2022/08/11 03:49:56;;;;;;;9.50;5.95;;;16.50;99.90;;;;;;5059865;28;20037;-58
2022/08/11 03:52:28;;;;;;;10.45;6.10;;;16.60;99.90;;;;;;5061017;28;20840;-58
2022/08/11 03:55:13;;;;;;;9.98;6.68;;;16.50;99.90;;;;;;5059874;28;20049;-58
2022/08/11 03:58:16;;;;;;;10.35;6.80;;;16.50;99.90;;;;;;5059072;28;20087;-59
2022/08/11 04:01:06;;;;;;;9.48;6.60;;;16.60;99.90;;;;;;5061083;28;20098;-59
2022/08/11 04:03:47;;;;;;;12.75;7.47;;;16.60;99.90;;;;;;5059624;28;20302;-59
2022/08/11 04:06:44;;;;;;;11.60;8.07;;;16.60;99.90;;;;;;5060288;28;20124;-59
2022/08/11 04:09:47;;;;;;;14.30;6.88;;;16.60;99.90;;;;;;5060996;28;20049;-59
2022/08/11 04:12:37;;;;;;;11.40;7.20;;;16.60;99.90;;;;;;5025365;28;20045;-58
2022/08/11 04:18:39;;;;;;;12.63;7.85;;;16.60;99.90;;;;;;5060479;28;20048;-59
2022/08/11 04:21:17;;;;;;;12.50;7.50;;;16.60;99.90;;;;;;5059463;28;20079;-58
2022/08/11 04:24:07;;;;;;;12.18;8.30;;;16.60;99.90;;;;;;5059462;28;20037;-59
2022/08/11 04:27:06;;;;;;;12.00;7.82;;;16.60;99.90;;;;;;5060539;28;20045;-59
2022/08/11 04:29:49;;;;;;;10.10;7.03;;;16.70;99.90;;;;;;5059138;28;20080;-57
2022/08/11 04:32:39;;;;;;;13.32;7.55;;;16.60;99.90;;;;;;5059298;28;20045;-57
2022/08/11 04:35:32;;;;;;;12.05;8.50;;;16.70;99.90;;;;;;5060198;28;20049;-58
2022/08/11 04:38:36;;;;;;;13.70;8.38;;;16.70;99.90;;;;;;5059126;28;20045;-59
2022/08/11 04:41:21;;;;;;;13.00;8.60;;;16.70;99.90;;;;;;5058802;28;20048;-59
2022/08/11 04:43:49;;;;;;;12.68;8.27;;;16.70;99.90;;;;;;5059958;28;20100;-59
2022/08/11 04:46:31;;;;;;;12.35;8.45;;;16.70;99.90;;;;;;5058786;28;20049;-59
2022/08/11 05:01:41;;;;;;;12.55;9.18;;;17.00;99.90;;;;;;5059813;28;20118;-60
2022/08/11 05:06:59;;;;;;;13.73;9.05;;;17.00;99.90;;;;;;5058412;28;20052;-59
2022/08/11 05:10:03;;;;;;;13.07;9.35;;;17.10;99.90;;;;;;5059818;28;20037;-60
2022/08/11 05:12:54;;;;;;;15.20;10.38;;;17.10;99.90;;;;;;5059090;28;20037;-59
2022/08/11 05:36:00;;;;;;;16.40;11.40;;;17.60;99.90;;;;;;5039421;28;20524;-60
2022/08/11 05:58:04;;;;;;;14.80;10.93;;;18.20;99.90;;;;;;5035236;28;20072;-60
2022/08/11 06:00:30;;;;;;;15.57;11.55;;;18.40;99.90;;;;;;5036232;28;20056;-59
2022/08/11 06:03:02;;;;;;;15.73;10.93;;;18.50;99.90;;;;;;5034880;28;20041;-59
2022/08/11 06:05:37;;;;;;;17.08;10.95;;;18.50;99.90;;;;;;5035636;28;20041;-59
2022/08/11 06:08:06;;;;;;;15.77;9.55;;;18.60;99.90;;;;;;5036640;28;20052;-59
2022/08/11 06:10:35;;;;;;;13.70;9.80;;;18.70;99.90;;;;;;5039035;28;20041;-60
2022/08/11 06:13:03;;;;;;;16.52;10.45;;;18.80;99.90;;;;;;5040121;28;20049;-58
2022/08/11 06:15:32;;;;;;;14.68;10.00;;;18.90;99.90;;;;;;5037991;28;20053;-58
2022/08/11 06:18:01;;;;;;;14.15;10.32;;;18.90;99.90;;;;;;5037846;28;20058;-58
2022/08/11 06:20:36;;;;;;;17.15;10.45;;;19.00;99.90;;;;;;5038121;28;20622;-58
2022/08/11 06:23:04;;;;;;;15.35;9.13;;;19.10;99.90;;;;;;5039085;28;20489;-58
2022/08/11 06:25:34;;;;;;;15.80;9.77;;;19.10;99.90;;;;;;5039110;28;20401;-59
2022/08/11 06:28:03;;;;;;;16.02;9.68;;;19.20;99.90;;;;;;5038363;28;20053;-59
2022/08/11 06:30:38;;;;;;;14.25;9.02;;;19.40;99.90;;;;;;5050834;28;20136;-59
2022/08/11 06:33:08;;;;;;;13.60;8.88;;;19.50;99.90;;;;;;5058220;28;20065;-59
2022/08/11 06:35:44;;;;;;;13.02;8.43;;;19.50;99.90;;;;;;5057597;28;20055;-60
2022/08/11 06:38:36;;;;;;;13.48;8.40;;;19.70;99.90;;;;;;5058640;28;20418;-59
2022/08/11 06:41:36;;;;;;;13.65;8.85;;;19.70;99.90;;;;;;5057596;28;20045;-59
2022/08/11 06:44:18;;;;;;;11.27;7.25;;;19.80;99.90;;;;;;5035510;28;20060;-60
2022/08/11 06:46:49;;;;;;;;;;;19.90;99.90;;;;;;5059051;28;20041;-59
2022/08/11 06:52:17;;;;;;;12.70;8.00;;;20.00;99.90;;;;;;5024175;28;20090;-58
2022/08/11 06:55:05;;;;;;;13.95;7.95;;;20.10;99.90;;;;;;5057382;28;20049;-58
2022/08/11 07:00:27;;;;;;;12.20;7.68;;;20.30;99.90;;;;;;5059164;28;20087;-58
2022/08/11 07:03:07;;;;;;;11.00;8.20;;;20.40;99.90;;;;;;5057346;28;20049;-58
2022/08/11 07:06:03;;;;;;;11.00;7.43;;;20.40;99.90;;;;;;5056991;28;20096;-59
2022/08/11 07:17:48;;;;;;;10.70;6.30;;;20.80;99.90;;;;;;5058445;28;20512;-59
2022/08/11 07:28:56;;;;;;;10.10;6.50;;;21.20;99.90;;;;;;5056747;28;20055;-59
2022/08/11 07:31:31;;;;;;;9.98;6.03;;;21.30;99.90;;;;;;5038502;28;20709;-59
2022/08/11 07:34:26;;;;;;;10.73;7.10;;;21.40;99.90;;;;;;5037766;28;20049;-58
2022/08/11 07:36:58;;;;;;;11.52;6.20;;;21.40;99.90;;;;;;5031267;28;20154;-59
2022/08/11 07:39:26;;;;;;;11.50;6.40;;;21.50;99.90;;;;;;5055132;28;20041;-59
2022/08/11 07:41:55;;;;;;;8.60;6.07;;;21.70;99.90;;;;;;5056321;28;20056;-59
2022/08/11 07:44:24;;;;;;;10.15;5.78;;;21.80;99.90;;;;;;5057715;28;20053;-59
2022/08/11 07:52:32;;;;;;;9.75;5.57;;;22.10;99.90;;;;;;5057635;28;20080;-60
2022/08/11 07:55:13;;;;;;;10.10;4.82;;;22.20;99.90;;;;;;5056348;28;20597;-59
2022/08/11 08:19:49;;;;;;;7.95;3.42;;;22.90;99.90;;;;;;5055918;28;20052;-59
2022/08/11 08:22:17;;;;;;;7.82;4.07;;;23.10;99.90;;;;;;5057091;28;20041;-59
2022/08/11 08:24:43;;;;;;;8.02;3.97;;;23.20;99.90;;;;;;5055877;28;20504;-60
2022/08/11 08:27:11;;;;;;;8.90;4.07;;;23.30;99.90;;;;;;5055480;28;20044;-62
2022/08/11 08:32:24;;;;;;;7.38;3.97;;;23.30;99.90;;;;;;5045875;28;20079;-60
2022/08/11 08:34:51;;;;;;;7.43;3.10;;;23.50;99.90;;;;;;5045855;28;20051;-59
2022/08/11 08:37:19;;;;;;;6.57;3.17;;;23.50;99.90;;;;;;5044354;28;20048;-59
2022/08/11 08:39:47;;;;;;;8.07;2.90;;;23.60;99.90;;;;;;5048258;28;20063;-59
2022/08/11 08:42:22;;;;;;;7.53;3.72;;;23.70;99.90;;;;;;5055482;28;20493;-59
2022/08/11 08:44:55;;;;;;;9.35;3.83;;;23.80;99.90;;;;;;5071066;28;20049;-59
2022/08/11 08:47:23;;;;;;;6.75;3.38;;;23.80;99.90;;;;;;5057155;28;20041;-59
2022/08/11 08:49:58;;;;;;;6.22;3.20;;;23.80;99.90;;;;;;5055067;28;20033;-59
2022/08/11 08:52:24;;;;;;;6.55;2.95;;;23.90;99.90;;;;;;5056413;28;20154;-59
2022/08/11 08:55:02;;;;;;;7.00;2.67;;;24.10;99.90;;;;;;5055376;28;20051;-59
2022/08/11 08:57:32;;;;;;;6.60;2.47;;;24.10;99.90;;;;;;5056332;28;20086;-59
2022/08/11 08:59:59;;;;;;;6.35;2.65;;;24.20;99.90;;;;;;5056882;28;20049;-60
2022/08/11 09:02:26;;;;;;;5.63;2.30;;;24.30;99.90;;;;;;5054940;28;20074;-60
2022/08/11 09:04:53;;;;;;;5.57;2.45;;;24.40;99.90;;;;;;5056771;28;20090;-60
2022/08/11 09:07:22;;;;;;;5.70;2.20;;;24.60;99.90;;;;;;5054908;28;20037;-59
2022/08/11 09:09:53;;;;;;;5.95;2.60;;;24.60;99.90;;;;;;5056323;28;20101;-59
2022/08/11 09:12:21;;;;;;;4.82;2.05;;;24.80;99.90;;;;;;5055751;28;20069;-58
2022/08/11 09:15:22;;;;;;;4.97;2.10;;;24.80;99.90;;;;;;5055160;28;20041;-59
2022/08/11 09:17:45;;;;;;;7.75;2.30;;;24.80;99.90;;;;;;5053855;28;20102;-59
2022/08/11 09:20:16;;;;;;;6.13;1.90;;;24.90;99.90;;;;;;5055026;28;20060;-59
2022/08/11 09:28:17;;;;;;;5.47;1.88;;;25.10;99.90;;;;;;5057514;28;20090;-59
2022/08/11 09:30:46;;;;;;;6.65;1.80;;;25.20;99.90;;;;;;5045893;28;20108;-59
2022/08/11 09:33:15;;;;;;;5.30;2.03;;;25.30;99.90;;;;;;5038145;28;20819;-59
2022/08/11 09:35:45;;;;;;;6.05;1.77;;;25.40;99.90;;;;;;5038954;28;20555;-60
2022/08/11 09:41:04;;;;;;;7.43;2.00;;;25.50;99.90;;;;;;5057712;28;20080;-59
2022/08/11 09:46:15;;;;;;;13.98;3.35;;;25.60;99.90;;;;;;5061301;28;20425;-59
2022/08/11 09:48:46;;;;;;;10.55;2.22;;;25.80;99.90;;;;;;5062425;28;20504;-60
2022/08/11 09:51:12;;;;;;;6.77;2.20;;;25.80;99.90;;;;;;5062680;28;20097;-59
2022/08/11 09:53:40;;;;;;;5.20;1.92;;;25.80;99.90;;;;;;5054209;28;20300;-60
2022/08/11 09:59:01;;;;;;;5.78;1.90;;;25.90;99.90;;;;;;5052591;28;20055;-57
2022/08/11 10:01:33;;;;;;;4.70;1.80;;;26.00;99.90;;;;;;5053703;28;20036;-59
2022/08/11 10:04:05;;;;;;;5.32;2.13;;;26.10;99.90;;;;;;5059525;28;20092;-58
2022/08/11 10:09:20;;;;;;;6.68;1.80;;;26.30;99.90;;;;;;5061770;28;20122;-59
2022/08/11 10:11:47;;;;;;;5.63;1.80;;;26.40;99.90;;;;;;5060810;28;20045;-58
2022/08/11 10:17:04;;;;;;;3.70;1.60;;;26.40;99.90;;;;;;5060859;28;20091;-57
2022/08/11 10:19:33;;;;;;;4.93;1.60;;;26.50;99.90;;;;;;5060222;28;20078;-59
2022/08/11 10:27:28;;;;;;;5.20;2.00;;;26.80;99.90;;;;;;5062238;28;20052;-59
2022/08/11 10:35:25;;;;;;;5.80;2.10;;;27.00;98.90;;;;;;5062435;28;20049;-59
2022/08/11 10:37:52;;;;;;;6.68;1.90;;;27.00;98.10;;;;;;5061608;28;20133;-58
2022/08/11 10:40:23;;;;;;;5.18;2.10;;;27.10;98.50;;;;;;5061728;28;20044;-59
2022/08/11 10:43:11;;;;;;;5.78;1.80;;;27.10;96.40;;;;;;5062637;28;20050;-59
2022/08/11 10:48:28;;;;;;;4.72;1.65;;;27.20;97.90;;;;;;5062300;28;20076;-59
2022/08/11 10:51:13;;;;;;;5.35;1.85;;;27.20;97.00;;;;;;5061530;28;20109;-58
2022/08/11 10:59:25;;;;;;;3.65;1.52;;;27.30;97.20;;;;;;5061432;28;20060;-58
2022/08/11 11:01:52;;;;;;;4.20;1.80;;;27.40;95.90;;;;;;5061209;28;20044;-58
2022/08/11 11:04:45;;;;;;;8.93;2.08;;;27.60;96.70;;;;;;5062306;28;20045;-58
2022/08/11 11:07:23;;;;;;;5.50;1.83;;;27.70;96.50;;;;;;5060787;28;20037;-59
2022/08/11 11:09:54;;;;;;;5.20;2.00;;;27.60;95.30;;;;;;5061619;28;20057;-59
2022/08/11 11:18:35;;;;;;;5.60;1.83;;;27.90;95.50;;;;;;5059051;28;20578;-59
2022/08/11 11:21:17;;;;;;;5.75;1.73;;;27.80;94.70;;;;;;5060995;28;20068;-58
2022/08/11 11:23:54;;;;;;;5.88;1.65;;;28.00;95.00;;;;;;5059812;28;20053;-59
2022/08/11 11:26:59;;;;;;;8.63;1.83;;;28.00;94.40;;;;;;5061301;28;20045;-59
2022/08/11 11:29:53;;;;;;;5.18;1.80;;;28.00;93.70;;;;;;5058134;28;20045;-58
2022/08/11 11:32:23;;;;;;;5.05;1.50;;;28.20;94.00;;;;;;5040167;28;20050;-59
2022/08/11 11:35:25;;;;;;;4.72;1.67;;;28.10;94.30;;;;;;5041661;28;20040;-59
2022/08/11 11:37:51;;;;;;;4.15;1.60;;;28.30;94.40;;;;;;5024242;28;20095;-58
2022/08/11 11:40:22;;;;;;;5.10;1.50;;;28.20;94.00;;;;;;5059312;28;20124;-59
2022/08/11 11:42:55;;;;;;;4.53;1.50;;;28.30;93.80;;;;;;5061320;28;20509;-59
2022/08/11 11:45:24;;;;;;;4.57;1.65;;;28.40;93.40;;;;;;5059850;28;20068;-59
2022/08/11 11:47:51;;;;;;;3.80;1.73;;;28.30;93.00;;;;;;5059937;28;20048;-59
2022/08/11 11:50:26;;;;;;;4.97;1.83;;;28.50;93.40;;;;;;5058454;28;20096;-58
2022/08/11 11:52:54;;;;;;;5.70;1.70;;;28.40;92.60;;;;;;5060867;28;20029;-59
2022/08/11 11:55:24;;;;;;;5.55;1.77;;;28.40;93.00;;;;;;5060700;28;20037;-58
2022/08/11 12:03:25;;;;;;;4.05;1.40;;;28.60;92.50;;;;;;5059905;28;20110;-58
2022/08/11 12:05:52;;;;;;;4.43;1.50;;;28.60;92.80;;;;;;5059458;28;20072;-59
2022/08/11 12:08:19;;;;;;;4.38;1.40;;;28.60;92.50;;;;;;5060662;28;20107;-58
2022/08/11 12:13:41;;;;;;;3.58;1.45;;;28.60;91.80;;;;;;5060808;28;20104;-59
2022/08/11 12:16:09;;;;;;;4.80;1.80;;;28.60;91.40;;;;;;5059214;28;20698;-59
2022/08/11 12:18:36;;;;;;;4.28;1.77;;;28.60;92.10;;;;;;5060219;28;20288;-59
2022/08/11 12:21:03;;;;;;;6.90;1.80;;;28.70;92.10;;;;;;5060172;28;20037;-56
2022/08/11 12:29:10;;;;;;;4.05;1.60;;;28.70;91.20;;;;;;5130346;28;20071;-49
2022/08/11 12:31:38;;;;;;;2.83;1.30;;;28.70;91.50;;;;;;5130381;28;20039;-48
2022/08/11 12:34:06;;;;;;;5.85;1.80;;;28.90;91.10;;;;;;5112205;28;20383;-53
2022/08/11 12:36:35;;;;;;;4.22;1.40;;;28.80;91.20;;;;;;5130407;28;20490;-49
2022/08/11 12:39:05;;;;;;;3.33;1.48;;;28.80;90.80;;;;;;5114247;28;20498;-49
2022/08/11 13:05:45;;;;;;;4.53;1.50;;;28.80;90.30;;;;;;5324120;23;20051;-57
2022/08/11 13:08:16;;;;;;;5.15;1.40;;;28.90;91.00;;;;;;5011597;28;20445;-58
2022/08/11 13:13:28;;;;;;;5.65;1.35;;;28.90;90.80;;;;;;5015875;28;20110;-53
2022/08/11 13:15:55;;;;;;;3.15;1.20;;;28.90;90.60;;;;;;5017141;28;20121;-50
2022/08/11 13:18:22;;;;;;;6.38;1.60;;;28.80;90.60;;;;;;5013993;28;20048;-51
2022/08/11 13:20:51;;;;;;;4.20;1.45;;;29.00;90.50;;;;;;5016971;28;20050;-50
2022/08/11 13:23:16;;;;;;;4.00;1.30;;;28.90;90.30;;;;;;5016276;28;20042;-53
2022/08/11 13:25:43;;;;;;;4.95;1.50;;;28.90;90.20;;;;;;5016620;28;20516;-53
2022/08/11 13:28:11;;;;;;;2.92;1.30;;;28.90;89.80;;;;;;5016789;28;20058;-52
2022/08/11 13:33:25;;;;;;;4.80;1.38;;;29.00;90.10;;;;;;5017271;28;20121;-49
2022/08/11 13:35:54;;;;;;;6.85;1.65;;;28.90;89.70;;;;;;5011788;28;20054;-50
2022/08/11 13:38:23;;;;;;;6.65;1.40;;;28.90;89.90;;;;;;5003389;28;20093;-53
2022/08/11 13:40:51;;;;;;;3.28;1.25;;;28.80;87.30;;;;;;5003220;28;20580;-54
2022/08/11 13:43:20;;;;;;;2.92;1.23;;;28.70;87.90;;;;;;5002521;28;20524;-49
2022/08/11 13:45:47;;;;;;;3.35;1.52;;;28.70;89.10;;;;;;5003995;28;20051;-52
2022/08/11 13:48:14;;;;;;;3.53;1.42;;;28.70;89.00;;;;;;5002330;28;20053;-49
2022/08/11 13:53:29;;;;;;;3.67;1.40;;;28.60;89.30;;;;;;5003125;28;20046;-52
2022/08/11 13:55:59;;;;;;;4.18;1.23;;;28.60;89.20;;;;;;5002741;28;20065;-52
2022/08/11 13:58:26;;;;;;;4.95;1.50;;;28.60;89.50;;;;;;5003778;28;20034;-49
2022/08/11 14:00:53;;;;;;;3.25;1.25;;;28.60;87.60;;;;;;5001907;28;20053;-54
2022/08/11 14:03:26;;;;;;;4.22;1.23;;;28.50;88.90;;;;;;5003894;28;20122;-54
2022/08/11 14:05:55;;;;;;;6.15;1.60;;;28.50;87.70;;;;;;5002339;28;20054;-52
2022/08/11 14:08:26;;;;;;;4.07;1.30;;;28.50;88.40;;;;;;5001436;28;20061;-53
2022/08/11 14:13:42;;;;;;;4.05;1.48;;;28.40;86.50;;;;;;5002003;28;19926;-53
2022/08/11 14:16:14;;;;;;;3.70;1.48;;;28.40;87.70;;;;;;5003428;28;20081;-52
2022/08/11 14:18:44;;;;;;;4.70;1.58;;;28.40;88.80;;;;;;5001924;28;20050;-54
2022/08/11 14:24:00;;;;;;;3.97;1.60;;;28.40;88.10;;;;;;5003164;28;20056;-53
2022/08/11 14:26:28;;;;;;;5.55;1.80;;;28.30;87.40;;;;;;5000032;28;20042;-54
2022/08/11 14:29:01;;;;;;;4.93;1.65;;;28.20;90.70;;;;;;5002948;28;20053;-52
2022/08/11 14:31:30;;;;;;;4.00;1.50;;;28.10;92.50;;;;;;5000413;28;20042;-54
2022/08/11 14:34:01;;;;;;;7.15;1.90;;;28.10;92.50;;;;;;5002737;28;20038;-53
2022/08/11 14:36:31;;;;;;;5.40;1.70;;;28.00;92.80;;;;;;5002609;28;20034;-53
2022/08/11 14:38:57;;;;;;;5.72;2.00;;;27.90;93.20;;;;;;5000619;28;20057;-52
2022/08/11 14:47:05;;;;;;;5.15;1.73;;;27.70;93.30;;;;;;5002463;28;20057;-50
2022/08/11 14:49:34;;;;;;;6.28;1.80;;;27.70;93.40;;;;;;5000669;28;20045;-52
2022/08/11 14:52:03;;;;;;;6.85;1.90;;;27.60;93.30;;;;;;4999903;28;20054;-50
2022/08/11 14:57:16;;;;;;;4.80;2.10;;;27.60;93.50;;;;;;5001219;28;20133;-52
2022/08/11 14:59:43;;;;;;;5.93;1.85;;;27.50;93.50;;;;;;5002062;28;20102;-54
2022/08/11 15:04:58;;;;;;;6.05;1.80;;;27.40;93.70;;;;;;4999525;28;20118;-53
2022/08/11 15:07:29;;;;;;;5.15;1.50;;;27.30;93.20;;;;;;5002005;28;20057;-55
2022/08/11 15:10:03;;;;;;;6.13;2.10;;;27.20;93.10;;;;;;5000795;28;20054;-54
2022/08/11 15:12:30;;;;;;;4.20;1.80;;;27.20;92.90;;;;;;5001738;28;20057;-53
2022/08/11 15:17:42;;;;;;;4.68;1.75;;;27.10;93.10;;;;;;4981301;28;20081;-54
2022/08/11 15:25:56;;;;;;;4.15;1.40;;;27.00;93.20;;;;;;4981723;28;20092;-52
2022/08/11 15:39:33;;;;;;;8.15;1.75;;;26.90;93.20;;;;;;4999073;28;20061;-53
2022/08/11 15:47:47;;;;;;;5.15;2.00;;;26.80;93.50;;;;;;5000217;28;20053;-54
2022/08/11 15:50:16;;;;;;;4.95;1.67;;;26.80;93.80;;;;;;5001751;28;20050;-52
2022/08/11 15:53:04;;;;;;;6.88;1.92;;;26.70;93.70;;;;;;4998170;28;20482;-54
2022/08/11 15:55:33;;;;;;;5.35;1.98;;;26.70;93.60;;;;;;4996786;28;20117;-54
2022/08/11 16:06:34;;;;;;;5.55;1.80;;;26.60;94.00;;;;;;4997497;28;20158;-54
2022/08/11 16:09:04;;;;;;;4.68;1.70;;;26.50;94.10;;;;;;4996316;28;20059;-54
2022/08/11 16:11:33;;;;;;;4.47;1.87;;;26.50;94.30;;;;;;4998291;28;20042;-55
2022/08/11 16:16:51;;;;;;;4.80;1.58;;;26.40;94.10;;;;;;4997412;28;20053;-53
2022/08/11 16:19:19;;;;;;;4.50;1.73;;;26.40;94.20;;;;;;4996613;28;20058;-51
2022/08/11 16:21:49;;;;;;;5.80;1.70;;;26.40;94.20;;;;;;4996777;28;20045;-54
2022/08/11 16:24:18;;;;;;;5.43;1.88;;;26.50;94.50;;;;;;4998114;28;20077;-54
2022/08/11 16:26:44;;;;;;;6.53;1.58;;;26.50;94.60;;;;;;4996344;28;20046;-53
2022/08/11 16:29:11;;;;;;;4.38;1.85;;;26.40;94.60;;;;;;4997756;28;20050;-54
2022/08/11 16:31:39;;;;;;;4.57;2.13;;;26.40;94.40;;;;;;4995395;28;20050;-56
2022/08/11 16:38:33;;;;;;;5.15;1.52;;;26.40;94.20;;;;;;4997468;28;20081;-55
2022/08/11 16:39:58;;;;;;;5.97;1.55;;;26.40;94.10;;;;;;4951855;29;20055;-53
2022/08/11 16:47:52;;;;;;;4.78;1.70;;;26.30;94.30;;;;;;4996035;28;20090;-54
2022/08/11 16:50:19;;;;;;;4.80;1.85;;;26.30;94.50;;;;;;4997808;28;20075;-55
2022/08/11 16:52:45;;;;;;;5.35;1.70;;;26.30;94.70;;;;;;4995940;28;20056;-54
2022/08/11 16:55:11;;;;;;;6.00;1.70;;;26.40;94.70;;;;;;4997517;28;20070;-54
2022/08/11 17:00:25;;;;;;;4.03;1.80;;;26.60;95.00;;;;;;4996447;28;20065;-55
2022/08/11 17:14:44;;;;;;;3.88;1.67;;;28.20;93.70;;;;;;4979371;28;20118;-54
2022/08/11 17:17:25;;;;;;;6.80;1.60;;;28.60;94.00;;;;;;4996948;28;20133;-54
2022/08/11 17:19:55;;;;;;;5.35;1.60;;;30.20;93.20;;;;;;5001320;28;20046;-53
2022/08/11 17:25:08;;;;;;;4.57;1.50;;;32.50;91.80;;;;;;4999793;28;20684;-55
2022/08/11 17:27:35;;;;;;;5.53;1.80;;;33.40;91.20;;;;;;4999046;28;20042;-50
2022/08/11 17:30:04;;;;;;;4.90;1.40;;;34.00;90.30;;;;;;4999234;28;20628;-55
2022/08/11 17:35:31;;;;;;;5.07;1.58;;;34.80;87.70;;;;;;4978209;28;20134;-52
2022/08/11 17:38:16;;;;;;;6.20;2.08;;;34.70;87.60;;;;;;4987271;28;20038;-51
2022/08/11 17:49:06;;;;;;;7.25;2.92;;;32.50;88.50;;;;;;4997478;28;20042;-52
2022/08/11 17:59:51;;;;;;;5.40;2.08;;;29.10;91.30;;;;;;5000039;28;20154;-54
2022/08/11 18:05:32;;;;;;;7.38;2.30;;;28.10;92.20;;;;;;4998499;28;20093;-53
